Hollow Rock, Tennessee
Current Conditions -  °F | °C
As of 5:15 PM on Wednesday 17 Dec 2014 (Local Time) from KPVE Reporting Station
Clear Clear  
Wind Chill: 34°   Ceiling: Unl
Heat Index: 37°   Visibility: 10mi
Dew Point: 28°   Wind: 5mph
Humidity: 70%   Direction: 320°NW
Pressure: 30.25"   Gusts: NA
Location:  36.04°N, 88.27°W
Report Text: KPVE 172315Z AUTO 32004KT 10SM CLR 03/M02 A3025 RMK
Loading
Personal Weather Stations






























Interactive Weather Map New forecast layout! Learn more

10-Day Weather Forecast

Advertisements
Track Severe Weather on mobile